Date,TemperatureHighF,TemperatureAvgF,TemperatureLowF,DewpointHighF,DewpointAvgF,DewpointLowF,HumidityHigh,HumidityAvg,HumidityLow,PressureMaxIn,PressureMinIn,WindSpeedMaxMPH,WindSpeedAvgMPH,GustSpeedMaxMPH,PrecipitationSumIn
2013-1-1,29.4,19.4,11.1,22.1,14.3,7.2,90,81,68,30.70,30.47,5,1,12,0.00
2013-1-2,29.0,19.0,10.8,23.1,14.3,6.9,86,82,75,30.68,30.50,3,1,6,0.00
2013-1-3,28.9,18.4,10.7,23.8,14.2,6.7,87,84,74,30.63,30.53,2,0,4,0.00
2013-1-4,28.7,20.3,12.3,24.4,16.6,8.4,89,85,79,30.68,30.49,2,0,4,0.00
2013-1-5,32.2,23.2,16.8,28.2,19.5,13.4,89,86,81,30.53,30.27,1,0,3,0.00
2013-1-6,35.2,27.5,24.0,30.5,23.9,20.7,88,86,77,30.32,30.21,2,0,4,0.00
2013-1-12,25.5,17.6,8.0,19.0,12.5,3.7,84,80,74,30.49,30.34,3,0,3,0.00
2013-1-13,25.1,13.4,4.0,14.4,7.0,-0.5,87,76,57,30.61,30.44,9,1,11,0.00
2013-1-14,27.0,16.1,6.5,17.9,10.0,1.9,85,77,62,30.77,30.55,4,0,6,0.00
2013-1-15,32.4,21.5,10.8,26.6,16.5,6.9,85,81,67,30.91,30.73,4,1,6,0.00
2013-1-16,41.0,28.1,19.5,27.9,20.9,15.8,86,75,56,30.84,30.62,5,1,7,0.00
2013-1-17,37.9,27.0,18.3,24.4,18.9,14.2,85,72,52,30.74,30.54,4,1,7,0.00
2013-1-18,38.0,24.6,15.3,22.9,17.2,11.6,85,74,48,30.69,30.51,3,1,6,0.00
2013-1-19,35.8,21.7,14.3,24.8,15.8,10.4,85,78,51,30.72,30.52,4,1,5,0.00
2013-1-20,36.6,22.8,12.7,23.4,16.2,8.8,86,76,53,30.72,30.50,3,1,5,0.00
2013-1-21,39.6,25.2,16.3,25.1,18.1,12.1,84,75,50,30.63,30.42,3,1,4,0.00
2013-1-22,35.2,26.1,17.5,26.0,20.2,13.8,85,78,60,30.54,30.33,2,0,4,0.00
2013-1-23,47.7,32.9,26.0,33.5,26.6,20.6,91,79,36,30.35,30.17,112,29,113,0.29
2013-1-24,37.2,34.8,33.4,35.1,32.7,31.3,92,92,91,30.38,30.24,112,110,113,0.19
2013-1-25,38.7,35.3,33.6,36.8,33.2,31.5,93,92,92,30.36,30.14,112,58,113,0.04
2013-1-26,41.4,35.5,32.3,38.0,32.3,29.7,93,88,72,30.14,29.93,112,2,113,0.05
2013-1-27,32.6,28.7,22.9,29.9,23.3,19.4,90,80,66,30.28,30.00,3,0,7,0.04
2013-1-28,37.3,28.0,20.7,28.6,22.7,17.2,87,81,61,30.38,30.25,4,0,5,0.00
2013-1-29,44.6,32.9,24.6,33.2,27.4,21.5,88,80,64,30.55,30.34,6,1,10,0.00
2013-1-30,40.8,31.5,25.4,31.7,26.5,22.4,89,82,62,30.62,30.47,4,1,5,0.00
2013-1-31,40.9,30.3,23.5,30.8,25.1,20.2,88,81,66,30.57,30.39,3,0,4,0.00